createdAt,value
2022-11-25T00:01:13.306Z,53.47
2022-11-25T00:03:41.935Z,55.37
2022-11-25T00:06:10.390Z,53.80
2022-11-25T00:08:37.827Z,50.80
2022-11-25T00:11:05.598Z,50.40
2022-11-25T00:13:33.007Z,49.97
2022-11-25T00:16:08.588Z,47.27
2022-11-25T00:18:36.092Z,54.17
2022-11-25T00:21:14.720Z,49.60
2022-11-25T00:23:41.916Z,48.53
2022-11-25T00:26:14.303Z,47.67
2022-11-25T00:28:42.700Z,48.60
2022-11-25T00:31:13.628Z,50.57
2022-11-25T00:33:41.117Z,52.87
2022-11-25T00:36:16.856Z,45.83
2022-11-25T00:38:44.346Z,49.93
2022-11-25T00:41:30.041Z,43.70
2022-11-25T00:44:15.424Z,42.00
2022-11-25T00:46:42.467Z,44.43
2022-11-25T00:49:09.835Z,44.47
2022-11-25T00:51:36.834Z,40.63
2022-11-25T00:54:03.746Z,42.37
2022-11-25T00:56:30.638Z,40.67
2022-11-25T00:58:57.691Z,39.23
2022-11-25T01:01:25.364Z,44.60
2022-11-25T01:03:53.086Z,47.17
2022-11-25T01:06:22.104Z,40.00
2022-11-25T01:08:49.280Z,36.30
2022-11-25T01:11:18.758Z,37.30
2022-11-25T01:13:45.973Z,39.77
2022-11-25T01:16:15.786Z,38.23
2022-11-25T01:18:42.984Z,39.10
2022-11-25T01:21:13.453Z,38.77
2022-11-25T01:23:41.535Z,39.77
2022-11-25T01:26:11.348Z,38.77
2022-11-25T01:28:38.772Z,38.50
2022-11-25T01:31:10.845Z,38.57
2022-11-25T01:33:37.884Z,40.80
2022-11-25T01:36:06.930Z,35.87
2022-11-25T01:38:34.565Z,37.57
2022-11-25T01:41:02.348Z,35.37
2022-11-25T01:43:29.903Z,36.50
2022-11-25T01:46:20.150Z,34.97
2022-11-25T01:49:07.332Z,40.43
2022-11-25T01:51:41.074Z,35.90
2022-11-25T01:54:11.683Z,37.23
2022-11-25T01:56:46.290Z,39.07
2022-11-25T01:59:13.539Z,39.17
2022-11-25T02:01:40.351Z,37.30
2022-11-25T02:04:10.052Z,36.70
2022-11-25T02:06:42.522Z,35.07
2022-11-25T02:09:09.708Z,37.03
2022-11-25T02:11:41.791Z,40.60
2022-11-25T02:14:09.541Z,37.97
2022-11-25T02:16:36.252Z,36.40
2022-11-25T02:19:03.681Z,35.10
2022-11-25T02:21:38.650Z,34.70
2022-11-25T02:24:17.509Z,33.93
2022-11-25T02:26:44.556Z,37.93
2022-11-25T02:29:12.388Z,37.53
2022-11-25T02:31:39.144Z,36.73
2022-11-25T02:34:05.890Z,35.93
2022-11-25T02:36:34.192Z,34.23
2022-11-25T02:39:01.739Z,35.10
2022-11-25T02:41:54.170Z,38.47
2022-11-25T02:44:20.899Z,33.57
2022-11-25T02:46:47.770Z,33.27
2022-11-25T02:49:14.594Z,35.80
2022-11-25T02:51:44.438Z,32.50
2022-11-25T02:54:12.537Z,34.50
2022-11-25T02:56:40.285Z,31.50
2022-11-25T02:59:07.594Z,33.30
2022-11-25T03:01:35.476Z,34.53
2022-11-25T03:04:02.927Z,32.60
2022-11-25T03:06:30.497Z,33.37
2022-11-25T03:08:58.057Z,30.33
2022-11-25T03:11:43.642Z,31.27
2022-11-25T03:14:10.349Z,32.50
2022-11-25T03:16:37.166Z,29.53
2022-11-25T03:19:04.134Z,30.03
2022-11-25T03:21:30.829Z,30.03
2022-11-25T03:23:57.547Z,30.27
2022-11-25T03:26:26.007Z,28.17
2022-11-25T03:28:52.779Z,30.10
2022-11-25T03:31:19.755Z,29.27
2022-11-25T03:33:46.500Z,30.23
2022-11-25T03:36:13.178Z,29.40
2022-11-25T03:38:40.028Z,29.23
2022-11-25T03:41:07.021Z,31.77
2022-11-25T03:43:35.497Z,32.57
2022-11-25T03:46:02.309Z,32.40
2022-11-25T03:48:29.052Z,29.60
2022-11-25T03:50:55.977Z,30.80
2022-11-25T03:53:22.616Z,30.00
2022-11-25T03:55:49.321Z,34.27
2022-11-25T03:58:16.044Z,33.23
2022-11-25T04:00:42.736Z,29.60
2022-11-25T04:03:09.654Z,30.57
2022-11-25T04:05:36.339Z,31.93
2022-11-25T04:08:03.144Z,30.97
2022-11-25T04:10:29.896Z,30.57
2022-11-25T04:12:56.581Z,29.00
2022-11-25T04:15:23.484Z,30.40
2022-11-25T04:17:50.153Z,29.30
2022-11-25T04:20:17.314Z,29.67
2022-11-25T04:22:44.040Z,27.53
2022-11-25T04:25:10.816Z,29.70
2022-11-25T04:27:37.500Z,28.87
2022-11-25T04:30:05.467Z,29.00
2022-11-25T04:32:32.224Z,29.70
2022-11-25T04:34:59.023Z,30.87
2022-11-25T04:37:25.708Z,29.57
2022-11-25T04:39:52.402Z,27.57
2022-11-25T04:42:39.614Z,28.30
2022-11-25T04:45:33.335Z,28.77
2022-11-25T04:47:59.899Z,25.87
2022-11-25T04:50:26.627Z,28.57
2022-11-25T04:52:53.289Z,30.87
2022-11-25T04:55:20.292Z,28.63
2022-11-25T04:57:46.965Z,27.73
2022-11-25T05:00:14.141Z,29.27
2022-11-25T05:02:41.767Z,27.50
2022-11-25T05:05:09.244Z,28.10
2022-11-25T05:07:35.980Z,27.73
2022-11-25T05:10:02.921Z,28.57
2022-11-25T05:12:29.840Z,28.50
2022-11-25T05:14:56.995Z,28.60
2022-11-25T05:17:28.963Z,27.00
2022-11-25T05:19:55.861Z,27.07
2022-11-25T05:22:25.198Z,27.20
2022-11-25T05:24:52.108Z,26.77
2022-11-25T05:27:20.205Z,26.57
2022-11-25T05:29:50.222Z,27.80
2022-11-25T05:32:21.104Z,28.37
2022-11-25T05:34:47.747Z,27.03
2022-11-25T05:37:16.830Z,26.93
2022-11-25T05:39:46.565Z,28.60
2022-11-25T05:42:13.254Z,28.93
2022-11-25T05:44:40.011Z,28.43
2022-11-25T05:47:07.157Z,28.50
2022-11-25T05:49:33.807Z,30.23
2022-11-25T05:52:01.272Z,30.73
2022-11-25T05:54:27.986Z,29.73
2022-11-25T05:56:54.672Z,29.00
2022-11-25T05:59:21.386Z,29.43
2022-11-25T06:01:48.125Z,31.30
2022-11-25T06:04:14.774Z,30.60
2022-11-25T06:06:41.453Z,31.87
2022-11-25T06:09:08.211Z,29.17
2022-11-25T06:11:34.879Z,28.97
2022-11-25T06:14:01.639Z,28.33
2022-11-25T06:16:28.941Z,26.87
2022-11-25T06:18:55.804Z,29.33
2022-11-25T06:21:22.747Z,25.70
2022-11-25T06:23:49.416Z,26.90
2022-11-25T06:26:17.700Z,26.27
2022-11-25T06:28:45.265Z,25.60
2022-11-25T06:31:15.304Z,26.57
2022-11-25T06:33:42.495Z,26.73
2022-11-25T06:36:17.264Z,25.77
2022-11-25T06:38:49.373Z,27.60
2022-11-25T06:41:17.199Z,25.60
2022-11-25T06:43:44.249Z,28.23
2022-11-25T06:46:19.821Z,27.57
2022-11-25T06:48:51.088Z,26.57
2022-11-25T06:51:17.819Z,26.53
2022-11-25T06:53:44.973Z,25.47
2022-11-25T06:56:17.742Z,24.53
2022-11-25T06:58:45.153Z,25.97
2022-11-25T07:01:13.971Z,23.40
2022-11-25T07:03:41.608Z,23.13
2022-11-25T07:06:08.375Z,24.17
2022-11-25T07:08:35.106Z,24.60
2022-11-25T07:11:17.207Z,24.67
2022-11-25T07:13:44.359Z,22.80
2022-11-25T07:16:12.011Z,24.50
2022-11-25T07:18:40.920Z,24.63
2022-11-25T07:21:13.813Z,24.57
2022-11-25T07:23:41.648Z,24.00
2022-11-25T07:26:14.163Z,23.43
2022-11-25T07:28:41.431Z,23.73
2022-11-25T07:31:32.407Z,25.43
2022-11-25T07:34:06.353Z,26.10
2022-11-25T07:36:34.745Z,25.70
2022-11-25T07:39:04.458Z,24.03
2022-11-25T07:41:31.802Z,24.23
2022-11-25T07:44:01.158Z,24.37
2022-11-25T07:46:36.398Z,23.67
2022-11-25T07:49:09.956Z,23.67
2022-11-25T07:51:39.237Z,27.70
2022-11-25T07:54:09.076Z,28.27
2022-11-25T07:56:37.410Z,26.53
2022-11-25T07:59:04.900Z,27.37
2022-11-25T08:01:31.569Z,26.37
2022-11-25T08:03:58.736Z,25.77
2022-11-25T08:06:27.992Z,26.73
2022-11-25T08:08:57.339Z,24.13
2022-11-25T08:11:27.054Z,24.33
2022-11-25T08:13:54.051Z,24.10
2022-11-25T08:16:23.133Z,23.10
2022-11-25T08:18:50.321Z,23.73
2022-11-25T08:21:17.289Z,25.53
2022-11-25T08:23:47.484Z,23.93
2022-11-25T08:26:17.402Z,27.77
2022-11-25T08:28:44.323Z,26.97
2022-11-25T08:31:19.999Z,27.30
2022-11-25T08:33:47.966Z,25.50
2022-11-25T08:36:15.487Z,26.03
2022-11-25T08:38:43.280Z,26.20
2022-11-25T08:41:16.023Z,25.90
2022-11-25T08:43:43.131Z,26.73
2022-11-25T08:46:12.345Z,26.07
2022-11-25T08:48:39.624Z,25.83
2022-11-25T08:51:12.150Z,25.27
2022-11-25T08:53:40.112Z,26.17
2022-11-25T08:56:07.484Z,25.20
2022-11-25T08:58:35.191Z,24.67
2022-11-25T09:01:02.769Z,24.67
2022-11-25T09:03:33.713Z,25.60
2022-11-25T09:06:01.154Z,25.10
2022-11-25T09:08:27.946Z,26.43
2022-11-25T09:10:54.852Z,24.57
2022-11-25T09:13:21.575Z,24.57
2022-11-25T09:15:48.494Z,25.03
2022-11-25T09:18:15.678Z,27.53
2022-11-25T09:20:42.566Z,27.67
2022-11-25T09:23:09.292Z,26.90
2022-11-25T09:25:36.565Z,27.60
2022-11-25T09:28:04.069Z,28.00
2022-11-25T09:30:31.379Z,29.10
2022-11-25T09:32:58.226Z,29.60
2022-11-25T09:35:26.114Z,29.70
2022-11-25T09:37:53.040Z,29.87
2022-11-25T09:40:34.640Z,28.53
2022-11-25T09:43:30.355Z,27.53
2022-11-25T09:46:37.789Z,26.40
2022-11-25T09:49:12.517Z,26.10
2022-11-25T09:52:02.376Z,23.87
2022-11-25T09:54:42.917Z,23.70
2022-11-25T09:57:09.592Z,23.03
2022-11-25T09:59:46.423Z,24.50
2022-11-25T10:02:28.375Z,24.33
2022-11-25T10:05:06.398Z,31.37
2022-11-25T10:07:46.970Z,38.83
2022-11-25T10:10:27.579Z,37.40
2022-11-25T10:12:57.529Z,36.47
2022-11-25T10:15:32.659Z,38.60
2022-11-25T10:18:19.031Z,35.97
2022-11-25T10:20:49.545Z,36.67
2022-11-25T10:23:28.071Z,33.53
2022-11-25T10:26:10.553Z,39.07
2022-11-25T10:28:40.021Z,32.43
2022-11-25T10:31:22.954Z,32.90
2022-11-25T10:33:49.791Z,32.43
2022-11-25T10:36:23.192Z,30.70
2022-11-25T10:39:01.080Z,31.37
2022-11-25T10:41:33.172Z,32.10
2022-11-25T10:43:59.896Z,31.43
2022-11-25T10:47:10.989Z,31.70
2022-11-25T10:49:42.143Z,30.70
2022-11-25T10:52:14.124Z,31.33
2022-11-25T10:54:41.618Z,31.13
2022-11-25T10:57:20.449Z,32.37
2022-11-25T10:59:58.658Z,33.37
2022-11-25T11:02:37.092Z,32.13
2022-11-25T11:05:09.621Z,31.50
2022-11-25T11:07:42.480Z,31.20
2022-11-25T11:10:22.890Z,30.83
2022-11-25T11:12:57.557Z,30.73
2022-11-25T11:15:31.599Z,28.80
2022-11-25T11:18:01.658Z,30.47
2022-11-25T11:20:30.465Z,32.80
2022-11-25T11:23:08.403Z,30.33
2022-11-25T11:25:43.658Z,30.07
2022-11-25T11:28:36.188Z,30.17
2022-11-25T11:31:08.026Z,28.67
2022-11-25T11:33:49.168Z,31.30
2022-11-25T11:36:53.355Z,29.83
2022-11-25T11:39:50.670Z,27.07
2022-11-25T11:42:35.264Z,25.27
2022-11-25T11:45:32.313Z,31.47
2022-11-25T11:48:18.349Z,30.47
2022-11-25T11:50:51.198Z,30.07
2022-11-25T11:53:54.848Z,25.93
2022-11-25T11:56:42.476Z,23.33
2022-11-25T11:59:27.810Z,22.93
2022-11-25T12:02:13.081Z,22.30
2022-11-25T12:04:46.978Z,21.17
2022-11-25T12:07:29.071Z,21.00
2022-11-25T12:10:01.283Z,22.10
2022-11-25T12:13:13.660Z,21.27
2022-11-25T12:15:46.867Z,20.53
2022-11-25T12:18:40.854Z,20.20
2022-11-25T12:21:24.229Z,22.00
2022-11-25T12:24:18.661Z,25.47
2022-11-25T12:27:06.281Z,25.70
2022-11-25T12:29:54.243Z,25.27
2022-11-25T12:32:39.768Z,25.07
2022-11-25T12:35:30.680Z,26.00
2022-11-25T12:38:08.646Z,25.00
2022-11-25T12:40:48.071Z,26.37
2022-11-25T12:43:40.948Z,26.43
2022-11-25T12:46:13.911Z,26.83
2022-11-25T12:48:43.112Z,25.73
2022-11-25T12:51:18.977Z,24.83
2022-11-25T12:54:11.568Z,25.63
2022-11-25T12:57:13.852Z,24.93
2022-11-25T13:00:39.758Z,27.27
2022-11-25T13:03:27.777Z,27.70
2022-11-25T13:06:21.612Z,29.07
2022-11-25T13:09:18.791Z,24.87
2022-11-25T13:12:23.657Z,23.90
2022-11-25T13:15:33.367Z,22.67
2022-11-25T13:18:11.687Z,24.43
2022-11-25T13:21:12.388Z,25.07
2022-11-25T13:23:53.217Z,26.37
2022-11-25T13:26:28.978Z,27.90
2022-11-25T13:28:56.935Z,27.43
2022-11-25T13:31:35.503Z,26.23
2022-11-25T13:34:21.181Z,26.20
2022-11-25T13:36:50.658Z,28.27
2022-11-25T13:39:39.274Z,28.47
2022-11-25T13:42:27.112Z,27.57
2022-11-25T13:44:59.522Z,28.83
2022-11-25T13:47:35.473Z,29.13
2022-11-25T13:50:21.568Z,29.93
2022-11-25T13:52:50.623Z,30.43
2022-11-25T13:55:17.313Z,31.07
2022-11-25T13:57:49.640Z,30.10
2022-11-25T14:00:19.448Z,30.40
2022-11-25T14:02:49.485Z,28.77
2022-11-25T14:05:31.708Z,29.70
2022-11-25T14:08:20.108Z,28.73
2022-11-25T14:11:04.599Z,28.17
2022-11-25T14:13:59.319Z,27.47
2022-11-25T14:16:46.234Z,28.23
2022-11-25T14:20:07.573Z,26.43
2022-11-25T14:23:11.393Z,26.93
2022-11-25T14:25:51.408Z,27.47
2022-11-25T14:28:27.434Z,28.20
2022-11-25T14:31:00.889Z,27.87
2022-11-25T14:33:36.505Z,28.63
2022-11-25T14:36:12.897Z,30.30
2022-11-25T14:39:24.860Z,29.10
2022-11-25T14:42:10.401Z,27.47
2022-11-25T14:44:53.513Z,28.47
2022-11-25T14:47:25.173Z,27.67
2022-11-25T14:50:18.934Z,26.60
2022-11-25T14:52:44.100Z,25.67
2022-11-25T14:55:12.090Z,28.03
2022-11-25T14:57:43.730Z,26.83
2022-11-25T15:00:16.153Z,27.60
2022-11-25T15:02:57.542Z,28.07
2022-11-25T15:05:36.810Z,29.70
2022-11-25T15:08:25.428Z,29.60
2022-11-25T15:11:01.931Z,30.33
2022-11-25T15:13:58.512Z,32.87
2022-11-25T15:16:33.306Z,32.83
2022-11-25T15:19:05.313Z,32.73
2022-11-25T15:21:53.842Z,34.43
2022-11-25T15:24:27.662Z,31.73
2022-11-25T15:27:01.179Z,34.60
2022-11-25T15:29:29.530Z,32.20
2022-11-25T15:31:58.317Z,34.43
2022-11-25T15:34:25.881Z,33.93
2022-11-25T15:36:54.368Z,35.90
2022-11-25T15:39:21.391Z,34.27
2022-11-25T15:41:55.098Z,37.47
2022-11-25T15:44:30.698Z,37.60
2022-11-25T15:47:02.052Z,35.67
2022-11-25T15:49:29.935Z,36.37
2022-11-25T15:52:05.199Z,36.33
2022-11-25T15:54:38.017Z,40.27
2022-11-25T15:57:18.060Z,40.60
2022-11-25T15:59:53.691Z,41.60
2022-11-25T16:02:41.923Z,40.67
2022-11-25T16:05:28.144Z,39.27
2022-11-25T16:07:54.868Z,40.33
2022-11-25T16:10:31.564Z,40.13
2022-11-25T16:13:23.846Z,40.30
2022-11-25T16:16:13.114Z,41.37
2022-11-25T16:19:04.901Z,45.97
2022-11-25T16:21:40.608Z,42.33
2022-11-25T16:24:26.727Z,41.37
2022-11-25T16:26:57.814Z,41.57
2022-11-25T16:29:34.646Z,40.33
2022-11-25T16:32:10.918Z,43.17
2022-11-25T16:34:38.206Z,41.17
2022-11-25T16:37:05.117Z,41.43
2022-11-25T16:39:31.804Z,44.13
2022-11-25T16:42:02.519Z,43.13
2022-11-25T16:44:30.195Z,44.40
2022-11-25T16:46:57.876Z,47.10
2022-11-25T16:49:26.381Z,47.13
2022-11-25T16:51:54.336Z,45.33
2022-11-25T16:54:22.635Z,44.77
2022-11-25T16:56:53.017Z,47.00
2022-11-25T16:59:39.443Z,45.90
2022-11-25T17:02:19.404Z,47.80
2022-11-25T17:04:47.032Z,46.70
2022-11-25T17:07:33.214Z,47.50
2022-11-25T17:10:00.351Z,48.03
2022-11-25T17:12:32.282Z,46.80
2022-11-25T17:14:59.965Z,50.23
2022-11-25T17:17:27.758Z,48.87
2022-11-25T17:19:54.715Z,49.67
2022-11-25T17:22:24.565Z,46.93
2022-11-25T17:24:51.435Z,49.13
2022-11-25T17:27:26.172Z,46.53
2022-11-25T17:29:54.270Z,45.70
2022-11-25T17:32:21.469Z,46.40
2022-11-25T17:34:48.414Z,49.73
2022-11-25T17:37:23.866Z,48.03
2022-11-25T17:39:52.776Z,52.70
2022-11-25T17:42:32.905Z,54.00
2022-11-25T17:45:00.498Z,52.70
2022-11-25T17:47:27.425Z,56.47
2022-11-25T17:49:54.456Z,57.37
2022-11-25T17:52:21.220Z,55.63
2022-11-25T17:54:47.954Z,52.97
2022-11-25T17:57:19.775Z,51.77
2022-11-25T17:59:46.542Z,54.27
2022-11-25T18:02:18.511Z,55.83
2022-11-25T18:04:45.647Z,54.90
2022-11-25T18:07:12.358Z,54.83
2022-11-25T18:09:39.240Z,54.73
2022-11-25T18:12:27.923Z,53.30
2022-11-25T18:14:55.767Z,53.27
2022-11-25T18:17:23.012Z,53.47
2022-11-25T18:19:54.647Z,56.50
2022-11-25T18:22:24.026Z,52.30
2022-11-25T18:24:51.524Z,53.13
2022-11-25T18:27:27.307Z,53.77
2022-11-25T18:29:55.301Z,53.23
2022-11-25T18:32:23.445Z,48.63
2022-11-25T18:34:51.492Z,51.33
2022-11-25T18:37:18.284Z,49.27
2022-11-25T18:39:45.159Z,52.23
2022-11-25T18:42:26.599Z,52.13
2022-11-25T18:44:56.270Z,51.33
2022-11-25T18:47:23.309Z,58.63
2022-11-25T18:49:55.489Z,58.97
2022-11-25T18:52:23.920Z,57.57
2022-11-25T18:54:50.733Z,56.87
2022-11-25T18:57:17.475Z,55.07
2022-11-25T18:59:44.855Z,54.03
2022-11-25T19:02:16.963Z,61.67
2022-11-25T19:04:44.441Z,59.37
2022-11-25T19:07:11.222Z,56.07
2022-11-25T19:09:38.050Z,61.90
2022-11-25T19:12:05.519Z,59.07
2022-11-25T19:14:37.612Z,62.40
2022-11-25T19:17:08.453Z,57.87
2022-11-25T19:19:37.881Z,56.13
2022-11-25T19:22:11.363Z,56.50
2022-11-25T19:24:38.381Z,57.70
2022-11-25T19:27:05.265Z,57.50
2022-11-25T19:29:41.745Z,56.90
2022-11-25T19:32:19.040Z,54.97
2022-11-25T19:34:49.928Z,58.07
2022-11-25T19:37:22.060Z,62.60
2022-11-25T19:39:53.061Z,59.33
2022-11-25T19:42:19.836Z,59.17
2022-11-25T19:44:47.286Z,53.50
2022-11-25T19:47:24.399Z,51.43
2022-11-25T19:49:54.043Z,50.00
2022-11-25T19:52:23.707Z,52.13
2022-11-25T19:54:50.408Z,49.90
2022-11-25T19:57:20.299Z,48.93
2022-11-25T19:59:47.314Z,49.23
2022-11-25T20:02:19.224Z,49.50
2022-11-25T20:04:48.082Z,50.13
2022-11-25T20:07:18.064Z,46.07
2022-11-25T20:09:45.087Z,45.73
2022-11-25T20:12:28.806Z,46.70
2022-11-25T20:14:56.041Z,47.13
2022-11-25T20:17:22.684Z,45.53
2022-11-25T20:19:49.938Z,46.17
2022-11-25T20:22:21.055Z,46.77
2022-11-25T20:24:47.830Z,47.57
2022-11-25T20:27:16.105Z,46.50
2022-11-25T20:29:42.810Z,47.27
2022-11-25T20:32:24.742Z,43.17
2022-11-25T20:34:51.506Z,43.47
2022-11-25T20:37:23.874Z,44.27
2022-11-25T20:39:56.071Z,44.63
2022-11-25T20:42:23.937Z,46.67
2022-11-25T20:44:54.648Z,48.10
2022-11-25T20:47:26.354Z,53.97
2022-11-25T20:49:53.901Z,53.90
2022-11-25T20:52:31.932Z,52.83
2022-11-25T20:54:59.964Z,51.47
2022-11-25T20:57:26.795Z,54.33
2022-11-25T20:59:53.539Z,52.97
2022-11-25T21:02:21.540Z,52.00
2022-11-25T21:04:48.436Z,47.67
2022-11-25T21:07:17.780Z,48.70
2022-11-25T21:09:44.616Z,49.70
2022-11-25T21:12:19.144Z,52.73
2022-11-25T21:14:47.523Z,50.40
2022-11-25T21:17:14.352Z,50.60
2022-11-25T21:19:41.043Z,48.70
2022-11-25T21:22:13.419Z,46.00
2022-11-25T21:24:41.577Z,43.80
2022-11-25T21:27:16.153Z,44.27
2022-11-25T21:29:44.143Z,45.90
2022-11-25T21:32:26.350Z,47.93
2022-11-25T21:34:53.901Z,51.27
2022-11-25T21:37:40.758Z,46.63
2022-11-25T21:40:17.444Z,47.17
2022-11-25T21:42:44.370Z,44.70
2022-11-25T21:45:15.929Z,49.33
2022-11-25T21:47:42.940Z,46.47
2022-11-25T21:50:17.686Z,45.00
2022-11-25T21:52:44.485Z,44.33
2022-11-25T21:55:17.604Z,42.97
2022-11-25T21:57:44.665Z,42.43
2022-11-25T22:00:24.240Z,40.23
2022-11-25T22:02:51.249Z,39.60
2022-11-25T22:05:20.417Z,41.07
2022-11-25T22:07:47.608Z,42.43
2022-11-25T22:10:16.217Z,40.77
2022-11-25T22:12:45.855Z,43.13
2022-11-25T22:15:20.188Z,43.13
2022-11-25T22:17:47.182Z,41.30
2022-11-25T22:20:39.053Z,43.90
2022-11-25T22:23:15.113Z,40.17
2022-11-25T22:25:41.992Z,39.47
2022-11-25T22:28:13.565Z,40.43
2022-11-25T22:30:40.810Z,39.00
2022-11-25T22:33:10.821Z,40.83
2022-11-25T22:35:37.571Z,40.40
2022-11-25T22:38:12.594Z,39.23
2022-11-25T22:40:39.747Z,41.67
2022-11-25T22:43:07.893Z,38.63
2022-11-25T22:45:35.023Z,40.03
2022-11-25T22:48:05.283Z,36.57
2022-11-25T22:50:33.816Z,39.80
2022-11-25T22:53:01.638Z,38.27
2022-11-25T22:55:31.386Z,35.90
2022-11-25T22:58:00.180Z,41.83
2022-11-25T23:00:34.242Z,38.67
2022-11-25T23:03:02.715Z,37.13
2022-11-25T23:05:33.855Z,35.90
2022-11-25T23:08:22.962Z,35.57
2022-11-25T23:10:51.492Z,34.17
2022-11-25T23:13:20.411Z,38.20
2022-11-25T23:15:57.401Z,39.50
2022-11-25T23:18:24.025Z,37.30
2022-11-25T23:20:50.802Z,40.37
2022-11-25T23:23:23.255Z,37.97
2022-11-25T23:25:50.460Z,40.07
2022-11-25T23:28:17.721Z,41.37
2022-11-25T23:30:55.365Z,39.03
2022-11-25T23:33:38.594Z,40.90
2022-11-25T23:36:10.396Z,40.73
2022-11-25T23:38:51.154Z,41.73
2022-11-25T23:41:25.851Z,43.63
2022-11-25T23:43:53.375Z,41.23
2022-11-25T23:46:23.983Z,42.90
2022-11-25T23:48:57.564Z,41.10
2022-11-25T23:51:26.312Z,40.47
2022-11-25T23:53:54.271Z,43.33
2022-11-25T23:56:21.196Z,40.80
2022-11-25T23:58:49.524Z,41.83
